createdAt,value
2023-03-14T00:00:07.858Z,89.59960938
2023-03-14T00:01:09.188Z,90.11230469
2023-03-14T00:02:09.574Z,90.31982422
2023-03-14T00:03:10.814Z,88.26904297
2023-03-14T00:04:11.257Z,88.36669922
2023-03-14T00:05:11.678Z,87.89672852
2023-03-14T00:06:13.137Z,87.17651367
2023-03-14T00:07:13.481Z,88.61694336
2023-03-14T00:08:13.895Z,87.3840332
2023-03-14T00:09:14.329Z,88.61694336
2023-03-14T00:10:14.744Z,88.10424805
2023-03-14T00:11:15.233Z,87.59155273
2023-03-14T00:12:15.524Z,88.10424805
2023-03-14T00:13:15.958Z,88.00048828
2023-03-14T00:14:16.415Z,88.10424805
2023-03-14T00:15:16.830Z,87.3840332
2023-03-14T00:16:18.148Z,85.84594727
2023-03-14T00:17:18.476Z,87.6953125
2023-03-14T00:18:18.864Z,86.97509766
2023-03-14T00:19:19.316Z,85.94970703
2023-03-14T00:20:19.754Z,86.46240234
2023-03-14T00:21:20.182Z,87.79296875
2023-03-14T00:22:20.601Z,86.25488281
2023-03-14T00:23:21.016Z,85.7421875
2023-03-14T00:24:21.431Z,85.22949219
2023-03-14T00:25:21.911Z,86.15112305
2023-03-14T00:26:23.146Z,85.7421875
2023-03-14T00:27:23.548Z,85.54077148
2023-03-14T00:28:23.944Z,87.28027344
2023-03-14T00:29:24.316Z,86.46240234
2023-03-14T00:30:24.799Z,85.63842773
2023-03-14T00:31:26.090Z,85.7421875
2023-03-14T00:32:26.624Z,87.28027344
2023-03-14T00:33:26.992Z,86.66381836
2023-03-14T00:34:27.397Z,85.22949219
2023-03-14T00:35:28.760Z,85.33325195
2023-03-14T00:36:30.213Z,85.12573242
2023-03-14T00:38:01.044Z,85.60180664
2023-03-14T00:39:01.479Z,84.98535156
2023-03-14T00:40:01.885Z,84.51538086
2023-03-14T00:41:02.370Z,84.71679688
2023-03-14T00:42:02.897Z,84.61303711
2023-03-14T00:43:03.290Z,85.60180664
2023-03-14T00:44:03.691Z,85.60180664
2023-03-14T00:45:04.122Z,86.5234375
2023-03-14T00:46:04.568Z,84.68017578
2023-03-14T00:47:05.825Z,86.11450195
2023-03-14T00:48:06.193Z,85.49804688
2023-03-14T00:49:06.591Z,85.19287109
2023-03-14T00:50:07.176Z,84.27124023
2023-03-14T00:51:07.615Z,85.19287109
2023-03-14T00:52:08.069Z,86.27929688
2023-03-14T00:53:08.505Z,87.20092773
2023-03-14T00:54:09.028Z,84.02709961
2023-03-14T00:55:09.448Z,85.25390625
2023-03-14T00:56:09.911Z,84.53369141
2023-03-14T00:57:10.404Z,85.04638672
2023-03-14T00:58:10.820Z,85.25390625
2023-03-14T00:59:11.324Z,83.30688477
2023-03-14T01:00:12.284Z,83.81958008
2023-03-14T01:01:12.721Z,84.63745117
2023-03-14T01:02:13.237Z,83.71582031
2023-03-14T01:03:13.670Z,83.30688477
2023-03-14T01:04:13.939Z,84.80224609
2023-03-14T01:05:14.378Z,82.58666992
2023-03-14T01:06:14.837Z,82.28149414
2023-03-14T01:07:15.829Z,82.89794922
2023-03-14T01:08:16.188Z,83.81958008
2023-03-14T01:09:16.567Z,84.53369141
2023-03-14T01:10:16.984Z,83.71582031
2023-03-14T01:11:17.428Z,84.12475586
2023-03-14T01:12:17.855Z,85.93139648
2023-03-14T01:13:18.366Z,85.52246094
2023-03-14T01:14:18.776Z,84.60083008
2023-03-14T01:15:19.166Z,84.70458984
2023-03-14T01:16:19.656Z,84.49707031
2023-03-14T01:17:20.894Z,82.75756836
2023-03-14T01:18:21.211Z,84.08813477
2023-03-14T01:19:21.630Z,82.24487305
2023-03-14T01:20:22.743Z,80.7434082
2023-03-14T01:21:23.145Z,82.14111328
2023-03-14T01:22:23.598Z,81.35986328
2023-03-14T01:23:23.961Z,80.7434082
2023-03-14T01:24:24.431Z,82.17773438
2023-03-14T01:25:24.880Z,82.14111328
2023-03-14T01:26:25.266Z,82.55004883
2023-03-14T01:27:26.298Z,83.47167969
2023-03-14T01:28:26.689Z,82.95898438
2023-03-14T01:29:27.120Z,82.86132813
2023-03-14T01:30:27.503Z,81.93969727
2023-03-14T01:31:28.032Z,81.11572266
2023-03-14T01:32:29.087Z,82.34863281
2023-03-14T01:33:29.452Z,81.8359375
2023-03-14T01:35:00.318Z,81.73217773
2023-03-14T01:36:00.792Z,83.06274414
2023-03-14T01:37:02.052Z,81.32324219
2023-03-14T01:38:02.720Z,80.23071289
2023-03-14T01:39:03.162Z,80.43823242
2023-03-14T01:40:03.636Z,80.02929688
2023-03-14T01:41:04.122Z,80.23071289
2023-03-14T01:42:04.540Z,79.82177734
2023-03-14T01:43:04.984Z,80.02929688
2023-03-14T01:44:05.332Z,80.33447266
2023-03-14T01:45:05.740Z,80.95092773
2023-03-14T01:46:06.364Z,81.66503906
2023-03-14T01:47:07.560Z,80.13305664
2023-03-14T01:48:07.993Z,81.46362305
2023-03-14T01:49:08.368Z,80.23071289
2023-03-14T01:50:08.767Z,80.84716797
2023-03-14T01:51:09.162Z,81.0546875
2023-03-14T01:52:09.572Z,80.43823242
2023-03-14T01:53:10.013Z,80.84716797
2023-03-14T01:54:11.254Z,80.95092773
2023-03-14T01:55:11.642Z,82.58666992
2023-03-14T01:56:12.077Z,82.17773438
2023-03-14T01:57:12.534Z,80.02929688
2023-03-14T01:58:13.067Z,79.62036133
2023-03-14T01:59:13.386Z,80.23071289
2023-03-14T02:00:13.780Z,79.71801758
2023-03-14T02:01:14.243Z,79.10766602
2023-03-14T02:02:14.562Z,81.0546875
2023-03-14T02:03:15.149Z,80.84716797
2023-03-14T02:04:15.495Z,78.69873047
2023-03-14T02:05:15.874Z,79.71801758
2023-03-14T02:06:16.289Z,79.92553711
2023-03-14T02:07:17.557Z,80.23071289
2023-03-14T02:08:17.990Z,79.51660156
2023-03-14T02:09:18.417Z,81.35986328
2023-03-14T02:10:18.809Z,79.00390625
2023-03-14T02:11:19.239Z,79.30908203
2023-03-14T02:12:19.632Z,80.43823242
2023-03-14T02:13:20.065Z,80.09033203
2023-03-14T02:14:20.436Z,80.60302734
2023-03-14T02:15:20.869Z,80.1940918
2023-03-14T02:16:21.352Z,79.99267578
2023-03-14T02:17:22.559Z,80.40161133
2023-03-14T02:18:23.088Z,81.01196289
2023-03-14T02:19:23.407Z,80.05371094
2023-03-14T02:20:23.860Z,79.95605469
2023-03-14T02:21:24.309Z,79.13208008
2023-03-14T02:22:24.730Z,79.64477539
2023-03-14T02:23:25.308Z,80.05371094
2023-03-14T02:24:25.634Z,79.13208008
2023-03-14T02:25:26.090Z,79.03442383
2023-03-14T02:26:26.489Z,78.11279297
2023-03-14T02:27:27.557Z,78.72314453
2023-03-14T02:28:28.025Z,79.23583984
2023-03-14T02:29:28.391Z,79.64477539
2023-03-14T02:30:29.299Z,80.26123047
2023-03-14T02:32:00.050Z,80.05371094
2023-03-14T02:33:01.282Z,80.36499023
2023-03-14T02:34:01.923Z,79.95605469
2023-03-14T02:35:02.511Z,80.46264648
2023-03-14T02:36:02.949Z,79.95605469
2023-03-14T02:37:03.317Z,78.11279297
2023-03-14T02:38:04.296Z,78.41796875
2023-03-14T02:39:04.734Z,77.28881836
2023-03-14T02:40:05.164Z,78.72314453
2023-03-14T02:41:05.570Z,78.72314453
2023-03-14T02:42:05.988Z,78.41796875
2023-03-14T02:43:06.424Z,79.33959961
2023-03-14T02:44:06.885Z,79.64477539
2023-03-14T02:45:07.307Z,79.23583984
2023-03-14T02:46:07.789Z,77.19116211
2023-03-14T02:47:08.241Z,76.6784668
2023-03-14T02:48:09.283Z,76.3671875
2023-03-14T02:49:09.724Z,77.39257813
2023-03-14T02:50:10.214Z,76.98364258
2023-03-14T02:51:10.698Z,78.62548828
2023-03-14T02:52:11.138Z,78.31420898
2023-03-14T02:53:11.573Z,77.70385742
2023-03-14T02:54:11.989Z,75.34790039
2023-03-14T02:55:12.484Z,76.47094727
2023-03-14T02:56:12.914Z,76.78222656
2023-03-14T02:57:13.310Z,76.74560547
2023-03-14T02:58:14.257Z,77.86865234
2023-03-14T02:59:14.754Z,77.35595703
2023-03-14T03:00:15.141Z,77.76489258
2023-03-14T03:01:15.733Z,77.25830078
2023-03-14T03:02:16.092Z,76.74560547
2023-03-14T03:03:17.367Z,77.35595703
2023-03-14T03:04:17.857Z,77.76489258
2023-03-14T03:05:18.163Z,77.25830078
2023-03-14T03:06:18.545Z,77.66723633
2023-03-14T03:07:19.025Z,76.12915039
2023-03-14T03:08:20.362Z,75.92773438
2023-03-14T03:09:20.918Z,76.84326172
2023-03-14T03:10:21.227Z,77.4597168
2023-03-14T03:11:21.631Z,77.4597168
2023-03-14T03:12:22.062Z,75.20751953
2023-03-14T03:13:22.543Z,76.23291016
2023-03-14T03:14:23.898Z,77.25830078
2023-03-14T03:15:24.228Z,76.94702148
2023-03-14T03:16:24.676Z,76.53808594
2023-03-14T03:17:25.042Z,76.53808594
2023-03-14T03:18:25.482Z,76.74560547
2023-03-14T03:19:25.905Z,78.17382813
2023-03-14T03:20:26.358Z,77.56347656
2023-03-14T03:21:26.754Z,76.74560547
2023-03-14T03:22:27.167Z,74.90234375
2023-03-14T03:23:27.621Z,75.00610352
2023-03-14T03:24:28.555Z,74.01733398
2023-03-14T03:25:59.205Z,74.11499023
2023-03-14T03:26:59.600Z,74.08447266
